sensor_id;sensor_type;location;lat;lon;timestamp;temperature;humidity
63047;DHT22;62025;39.238;9.126;2023-07-29T00:00:41;27.30;76.80
63047;DHT22;62025;39.238;9.126;2023-07-29T00:03:08;27.20;77.00
63047;DHT22;62025;39.238;9.126;2023-07-29T00:05:36;27.30;77.10
63047;DHT22;62025;39.238;9.126;2023-07-29T00:08:02;27.30;77.10
63047;DHT22;62025;39.238;9.126;2023-07-29T00:10:28;27.30;77.00
63047;DHT22;62025;39.238;9.126;2023-07-29T00:12:56;27.30;76.80
63047;DHT22;62025;39.238;9.126;2023-07-29T00:15:22;27.20;77.10
63047;DHT22;62025;39.238;9.126;2023-07-29T00:17:48;27.20;77.10
63047;DHT22;62025;39.238;9.126;2023-07-29T00:20:14;27.20;76.90
63047;DHT22;62025;39.238;9.126;2023-07-29T00:22:41;27.20;77.00
63047;DHT22;62025;39.238;9.126;2023-07-29T00:25:07;27.10;77.20
63047;DHT22;62025;39.238;9.126;2023-07-29T00:27:33;27.10;77.40
63047;DHT22;62025;39.238;9.126;2023-07-29T00:29:59;27.10;77.40
63047;DHT22;62025;39.238;9.126;2023-07-29T00:32:27;27.00;77.50
63047;DHT22;62025;39.238;9.126;2023-07-29T00:34:54;27.10;77.30
63047;DHT22;62025;39.238;9.126;2023-07-29T00:37:21;27.00;77.50
63047;DHT22;62025;39.238;9.126;2023-07-29T00:39:47;27.10;77.30
63047;DHT22;62025;39.238;9.126;2023-07-29T00:42:13;27.20;77.00
63047;DHT22;62025;39.238;9.126;2023-07-29T00:44:39;27.10;77.30
63047;DHT22;62025;39.238;9.126;2023-07-29T00:47:05;27.10;77.30
63047;DHT22;62025;39.238;9.126;2023-07-29T00:49:32;27.10;77.30
63047;DHT22;62025;39.238;9.126;2023-07-29T00:51:59;27.10;77.40
63047;DHT22;62025;39.238;9.126;2023-07-29T00:54:25;27.10;77.40
63047;DHT22;62025;39.238;9.126;2023-07-29T00:56:51;27.00;77.40
63047;DHT22;62025;39.238;9.126;2023-07-29T00:59:17;27.00;77.50
63047;DHT22;62025;39.238;9.126;2023-07-29T01:01:43;27.00;77.50
63047;DHT22;62025;39.238;9.126;2023-07-29T01:04:09;27.00;77.60
63047;DHT22;62025;39.238;9.126;2023-07-29T01:12:51;26.90;77.80
63047;DHT22;62025;39.238;9.126;2023-07-29T01:18:21;26.90;77.40
63047;DHT22;62025;39.238;9.126;2023-07-29T01:20:49;26.90;76.90
63047;DHT22;62025;39.238;9.126;2023-07-29T01:23:24;26.90;76.50
63047;DHT22;62025;39.238;9.126;2023-07-29T01:25:51;26.90;76.40
63047;DHT22;62025;39.238;9.126;2023-07-29T01:28:17;26.90;76.20
63047;DHT22;62025;39.238;9.126;2023-07-29T01:30:43;26.90;76.30
63047;DHT22;62025;39.238;9.126;2023-07-29T01:33:23;26.90;76.40
63047;DHT22;62025;39.238;9.126;2023-07-29T01:35:57;26.90;76.50
63047;DHT22;62025;39.238;9.126;2023-07-29T01:38:29;26.90;76.60
63047;DHT22;62025;39.238;9.126;2023-07-29T01:41:01;26.80;76.70
63047;DHT22;62025;39.238;9.126;2023-07-29T01:43:31;26.90;76.70
63047;DHT22;62025;39.238;9.126;2023-07-29T01:45:59;26.90;76.60
63047;DHT22;62025;39.238;9.126;2023-07-29T01:48:26;26.90;76.60
63047;DHT22;62025;39.238;9.126;2023-07-29T01:50:53;27.00;76.30
63047;DHT22;62025;39.238;9.126;2023-07-29T01:53:19;27.00;76.10
63047;DHT22;62025;39.238;9.126;2023-07-29T01:55:45;27.00;76.20
63047;DHT22;62025;39.238;9.126;2023-07-29T01:58:11;27.00;76.50
63047;DHT22;62025;39.238;9.126;2023-07-29T02:00:39;26.90;76.60
63047;DHT22;62025;39.238;9.126;2023-07-29T02:03:05;26.90;76.50
63047;DHT22;62025;39.238;9.126;2023-07-29T02:05:31;26.90;76.50
63047;DHT22;62025;39.238;9.126;2023-07-29T02:07:57;27.00;76.30
63047;DHT22;62025;39.238;9.126;2023-07-29T02:10:23;27.00;76.30
63047;DHT22;62025;39.238;9.126;2023-07-29T02:12:49;27.00;76.50
63047;DHT22;62025;39.238;9.126;2023-07-29T02:15:15;27.00;76.20
63047;DHT22;62025;39.238;9.126;2023-07-29T02:17:42;27.00;76.10
63047;DHT22;62025;39.238;9.126;2023-07-29T02:20:08;27.00;76.20
63047;DHT22;62025;39.238;9.126;2023-07-29T02:22:36;27.00;76.40
63047;DHT22;62025;39.238;9.126;2023-07-29T02:25:02;27.00;76.60
63047;DHT22;62025;39.238;9.126;2023-07-29T02:27:29;27.00;76.40
63047;DHT22;62025;39.238;9.126;2023-07-29T02:29:55;27.00;76.50
63047;DHT22;62025;39.238;9.126;2023-07-29T02:32:21;27.00;76.80
63047;DHT22;62025;39.238;9.126;2023-07-29T02:34:48;26.90;76.70
63047;DHT22;62025;39.238;9.126;2023-07-29T02:37:15;26.90;76.80
63047;DHT22;62025;39.238;9.126;2023-07-29T02:39:41;26.90;76.80
63047;DHT22;62025;39.238;9.126;2023-07-29T02:42:06;26.90;76.70
63047;DHT22;62025;39.238;9.126;2023-07-29T02:44:32;26.90;76.60
63047;DHT22;62025;39.238;9.126;2023-07-29T02:46:58;26.90;76.50
63047;DHT22;62025;39.238;9.126;2023-07-29T02:49:24;26.90;76.50
63047;DHT22;62025;39.238;9.126;2023-07-29T02:51:50;26.90;76.60
63047;DHT22;62025;39.238;9.126;2023-07-29T02:54:16;26.90;76.40
63047;DHT22;62025;39.238;9.126;2023-07-29T02:56:42;26.90;76.30
63047;DHT22;62025;39.238;9.126;2023-07-29T02:59:08;27.00;76.10
63047;DHT22;62025;39.238;9.126;2023-07-29T03:01:34;26.90;76.10
63047;DHT22;62025;39.238;9.126;2023-07-29T03:04:00;26.90;76.30
63047;DHT22;62025;39.238;9.126;2023-07-29T03:06:27;26.90;76.30
63047;DHT22;62025;39.238;9.126;2023-07-29T03:08:53;26.90;76.00
63047;DHT22;62025;39.238;9.126;2023-07-29T03:11:19;26.90;75.90
63047;DHT22;62025;39.238;9.126;2023-07-29T03:13:45;26.90;76.00
63047;DHT22;62025;39.238;9.126;2023-07-29T03:16:16;26.90;75.90
63047;DHT22;62025;39.238;9.126;2023-07-29T03:18:49;26.90;75.90
63047;DHT22;62025;39.238;9.126;2023-07-29T03:21:15;26.80;75.80
63047;DHT22;62025;39.238;9.126;2023-07-29T03:23:41;26.90;75.60
63047;DHT22;62025;39.238;9.126;2023-07-29T03:26:07;26.90;75.50
63047;DHT22;62025;39.238;9.126;2023-07-29T03:28:40;26.80;75.50
63047;DHT22;62025;39.238;9.126;2023-07-29T03:31:08;26.70;75.40
63047;DHT22;62025;39.238;9.126;2023-07-29T03:33:34;26.80;75.50
63047;DHT22;62025;39.238;9.126;2023-07-29T03:36:00;26.80;75.60
63047;DHT22;62025;39.238;9.126;2023-07-29T03:38:27;26.80;75.50
63047;DHT22;62025;39.238;9.126;2023-07-29T03:40:53;26.80;75.70
63047;DHT22;62025;39.238;9.126;2023-07-29T03:43:19;26.80;75.70
63047;DHT22;62025;39.238;9.126;2023-07-29T03:45:46;26.80;75.20
63047;DHT22;62025;39.238;9.126;2023-07-29T03:48:12;26.80;75.00
63047;DHT22;62025;39.238;9.126;2023-07-29T03:50:38;26.80;74.50
63047;DHT22;62025;39.238;9.126;2023-07-29T03:53:05;26.80;74.00
63047;DHT22;62025;39.238;9.126;2023-07-29T03:55:32;26.80;74.00
63047;DHT22;62025;39.238;9.126;2023-07-29T03:57:59;26.80;73.20
63047;DHT22;62025;39.238;9.126;2023-07-29T04:00:27;26.70;72.00
63047;DHT22;62025;39.238;9.126;2023-07-29T04:02:53;26.70;71.80
63047;DHT22;62025;39.238;9.126;2023-07-29T04:05:19;26.70;71.00
63047;DHT22;62025;39.238;9.126;2023-07-29T04:07:46;26.70;70.10
63047;DHT22;62025;39.238;9.126;2023-07-29T04:10:13;26.70;69.80
63047;DHT22;62025;39.238;9.126;2023-07-29T04:12:39;26.60;69.50
63047;DHT22;62025;39.238;9.126;2023-07-29T04:15:06;26.60;69.40
63047;DHT22;62025;39.238;9.126;2023-07-29T04:17:32;26.50;68.80
63047;DHT22;62025;39.238;9.126;2023-07-29T04:19:58;26.50;68.90
63047;DHT22;62025;39.238;9.126;2023-07-29T04:22:29;26.40;68.80
63047;DHT22;62025;39.238;9.126;2023-07-29T04:24:55;26.40;68.80
63047;DHT22;62025;39.238;9.126;2023-07-29T04:27:21;26.40;68.70
63047;DHT22;62025;39.238;9.126;2023-07-29T04:29:47;26.40;68.40
63047;DHT22;62025;39.238;9.126;2023-07-29T04:32:13;26.40;68.30
63047;DHT22;62025;39.238;9.126;2023-07-29T04:34:41;26.40;67.70
63047;DHT22;62025;39.238;9.126;2023-07-29T04:37:07;26.50;67.30
63047;DHT22;62025;39.238;9.126;2023-07-29T04:39:33;26.60;66.90
63047;DHT22;62025;39.238;9.126;2023-07-29T04:41:59;26.50;66.90
63047;DHT22;62025;39.238;9.126;2023-07-29T04:44:26;26.40;66.70
63047;DHT22;62025;39.238;9.126;2023-07-29T04:46:52;26.40;67.00
63047;DHT22;62025;39.238;9.126;2023-07-29T04:49:18;26.40;68.00
63047;DHT22;62025;39.238;9.126;2023-07-29T04:51:44;26.50;67.80
63047;DHT22;62025;39.238;9.126;2023-07-29T04:54:10;26.50;67.90
63047;DHT22;62025;39.238;9.126;2023-07-29T04:56:36;26.50;67.20
63047;DHT22;62025;39.238;9.126;2023-07-29T04:59:02;26.50;67.30
63047;DHT22;62025;39.238;9.126;2023-07-29T05:01:28;26.60;66.90
63047;DHT22;62025;39.238;9.126;2023-07-29T05:03:54;26.60;66.70
63047;DHT22;62025;39.238;9.126;2023-07-29T05:06:20;26.60;67.20
63047;DHT22;62025;39.238;9.126;2023-07-29T05:08:46;26.60;67.20
63047;DHT22;62025;39.238;9.126;2023-07-29T05:11:11;26.60;67.00
63047;DHT22;62025;39.238;9.126;2023-07-29T05:13:37;26.60;66.90
63047;DHT22;62025;39.238;9.126;2023-07-29T05:16:04;26.60;66.40
63047;DHT22;62025;39.238;9.126;2023-07-29T05:18:30;26.80;66.40
63047;DHT22;62025;39.238;9.126;2023-07-29T05:20:56;26.80;66.90
63047;DHT22;62025;39.238;9.126;2023-07-29T05:23:22;26.80;67.10
63047;DHT22;62025;39.238;9.126;2023-07-29T05:25:48;26.80;67.30
63047;DHT22;62025;39.238;9.126;2023-07-29T05:28:14;26.90;66.90
63047;DHT22;62025;39.238;9.126;2023-07-29T05:30:40;27.00;66.60
63047;DHT22;62025;39.238;9.126;2023-07-29T05:33:06;27.00;66.60
63047;DHT22;62025;39.238;9.126;2023-07-29T05:35:35;27.00;66.60
63047;DHT22;62025;39.238;9.126;2023-07-29T05:38:01;27.00;66.70
63047;DHT22;62025;39.238;9.126;2023-07-29T05:40:29;27.10;66.70
63047;DHT22;62025;39.238;9.126;2023-07-29T05:42:55;27.10;66.50
63047;DHT22;62025;39.238;9.126;2023-07-29T05:45:21;27.30;65.70
63047;DHT22;62025;39.238;9.126;2023-07-29T05:47:47;27.30;65.40
63047;DHT22;62025;39.238;9.126;2023-07-29T05:50:14;27.30;65.40
63047;DHT22;62025;39.238;9.126;2023-07-29T05:52:41;27.40;64.80
63047;DHT22;62025;39.238;9.126;2023-07-29T05:55:07;27.40;64.30
63047;DHT22;62025;39.238;9.126;2023-07-29T05:57:33;27.40;63.70
63047;DHT22;62025;39.238;9.126;2023-07-29T05:59:59;27.40;63.90
63047;DHT22;62025;39.238;9.126;2023-07-29T06:02:26;27.40;63.80
63047;DHT22;62025;39.238;9.126;2023-07-29T06:04:52;27.50;62.80
63047;DHT22;62025;39.238;9.126;2023-07-29T06:07:18;27.50;62.90
63047;DHT22;62025;39.238;9.126;2023-07-29T06:09:44;27.70;63.00
63047;DHT22;62025;39.238;9.126;2023-07-29T06:12:10;27.60;62.70
63047;DHT22;62025;39.238;9.126;2023-07-29T06:14:36;27.70;62.70
63047;DHT22;62025;39.238;9.126;2023-07-29T06:17:02;27.80;62.60
63047;DHT22;62025;39.238;9.126;2023-07-29T06:19:28;27.90;62.30
63047;DHT22;62025;39.238;9.126;2023-07-29T06:21:55;28.00;62.10
63047;DHT22;62025;39.238;9.126;2023-07-29T06:24:22;28.10;61.90
63047;DHT22;62025;39.238;9.126;2023-07-29T06:26:47;28.10;61.60
63047;DHT22;62025;39.238;9.126;2023-07-29T06:29:13;28.20;61.50
63047;DHT22;62025;39.238;9.126;2023-07-29T06:31:39;28.20;61.30
63047;DHT22;62025;39.238;9.126;2023-07-29T06:34:05;28.30;61.30
63047;DHT22;62025;39.238;9.126;2023-07-29T06:36:31;28.40;61.10
63047;DHT22;62025;39.238;9.126;2023-07-29T06:38:57;28.40;60.90
63047;DHT22;62025;39.238;9.126;2023-07-29T06:41:23;28.50;60.90
63047;DHT22;62025;39.238;9.126;2023-07-29T06:43:49;28.50;60.80
63047;DHT22;62025;39.238;9.126;2023-07-29T06:46:15;28.60;60.70
63047;DHT22;62025;39.238;9.126;2023-07-29T06:48:41;28.70;60.40
63047;DHT22;62025;39.238;9.126;2023-07-29T06:51:07;28.80;60.00
63047;DHT22;62025;39.238;9.126;2023-07-29T06:53:33;28.90;59.50
63047;DHT22;62025;39.238;9.126;2023-07-29T06:55:59;29.10;58.90
63047;DHT22;62025;39.238;9.126;2023-07-29T06:58:25;29.30;58.40
63047;DHT22;62025;39.238;9.126;2023-07-29T07:00:51;29.40;58.00
63047;DHT22;62025;39.238;9.126;2023-07-29T07:03:17;29.50;57.60
63047;DHT22;62025;39.238;9.126;2023-07-29T07:05:43;29.60;57.30
63047;DHT22;62025;39.238;9.126;2023-07-29T07:08:09;29.60;57.00
63047;DHT22;62025;39.238;9.126;2023-07-29T07:10:35;29.70;56.80
63047;DHT22;62025;39.238;9.126;2023-07-29T07:13:01;29.70;56.70
63047;DHT22;62025;39.238;9.126;2023-07-29T07:15:26;29.70;56.50
63047;DHT22;62025;39.238;9.126;2023-07-29T07:17:52;29.80;56.30
63047;DHT22;62025;39.238;9.126;2023-07-29T07:20:18;29.80;56.30
63047;DHT22;62025;39.238;9.126;2023-07-29T07:22:44;29.70;56.40
63047;DHT22;62025;39.238;9.126;2023-07-29T07:25:10;29.70;56.80
63047;DHT22;62025;39.238;9.126;2023-07-29T07:27:37;29.80;56.60
63047;DHT22;62025;39.238;9.126;2023-07-29T07:30:03;30.00;56.50
63047;DHT22;62025;39.238;9.126;2023-07-29T07:32:30;30.20;55.60
63047;DHT22;62025;39.238;9.126;2023-07-29T07:34:56;30.20;55.20
63047;DHT22;62025;39.238;9.126;2023-07-29T07:37:22;30.30;55.20
63047;DHT22;62025;39.238;9.126;2023-07-29T07:39:48;30.40;54.90
63047;DHT22;62025;39.238;9.126;2023-07-29T07:42:14;30.40;54.70
63047;DHT22;62025;39.238;9.126;2023-07-29T07:44:40;30.50;54.40
63047;DHT22;62025;39.238;9.126;2023-07-29T07:47:06;30.60;53.60
63047;DHT22;62025;39.238;9.126;2023-07-29T07:49:32;30.70;53.30
63047;DHT22;62025;39.238;9.126;2023-07-29T07:51:57;30.70;52.80
63047;DHT22;62025;39.238;9.126;2023-07-29T07:54:23;30.60;52.40
63047;DHT22;62025;39.238;9.126;2023-07-29T07:56:49;30.90;51.80
63047;DHT22;62025;39.238;9.126;2023-07-29T07:59:15;30.80;50.50
63047;DHT22;62025;39.238;9.126;2023-07-29T08:01:41;30.80;49.60
63047;DHT22;62025;39.238;9.126;2023-07-29T08:04:07;30.60;49.30
63047;DHT22;62025;39.238;9.126;2023-07-29T08:06:33;30.50;49.80
63047;DHT22;62025;39.238;9.126;2023-07-29T08:08:59;30.60;49.30
63047;DHT22;62025;39.238;9.126;2023-07-29T08:11:25;30.30;49.80
63047;DHT22;62025;39.238;9.126;2023-07-29T08:13:51;30.40;50.40
63047;DHT22;62025;39.238;9.126;2023-07-29T08:16:17;30.50;49.90
63047;DHT22;62025;39.238;9.126;2023-07-29T08:18:43;30.40;50.40
63047;DHT22;62025;39.238;9.126;2023-07-29T08:21:10;30.50;50.70
63047;DHT22;62025;39.238;9.126;2023-07-29T08:23:36;30.60;50.90
63047;DHT22;62025;39.238;9.126;2023-07-29T08:26:04;30.60;51.20
63047;DHT22;62025;39.238;9.126;2023-07-29T08:28:38;30.50;51.50
63047;DHT22;62025;39.238;9.126;2023-07-29T08:31:05;30.70;49.60
63047;DHT22;62025;39.238;9.126;2023-07-29T08:33:31;30.90;49.50
63047;DHT22;62025;39.238;9.126;2023-07-29T08:36:01;30.90;51.30
63047;DHT22;62025;39.238;9.126;2023-07-29T08:38:28;31.20;51.70
63047;DHT22;62025;39.238;9.126;2023-07-29T08:41:14;31.20;51.50
63047;DHT22;62025;39.238;9.126;2023-07-29T08:44:21;31.00;51.90
63047;DHT22;62025;39.238;9.126;2023-07-29T08:46:49;30.90;52.50
63047;DHT22;62025;39.238;9.126;2023-07-29T08:49:18;31.00;53.60
63047;DHT22;62025;39.238;9.126;2023-07-29T08:51:49;31.10;53.10
63047;DHT22;62025;39.238;9.126;2023-07-29T08:54:15;31.10;53.40
63047;DHT22;62025;39.238;9.126;2023-07-29T08:56:42;30.80;54.40
63047;DHT22;62025;39.238;9.126;2023-07-29T08:59:10;30.70;55.40
63047;DHT22;62025;39.238;9.126;2023-07-29T09:01:39;31.10;54.60
63047;DHT22;62025;39.238;9.126;2023-07-29T09:04:05;31.40;53.40
63047;DHT22;62025;39.238;9.126;2023-07-29T09:06:32;31.30;52.60
63047;DHT22;62025;39.238;9.126;2023-07-29T09:08:59;31.10;53.00
63047;DHT22;62025;39.238;9.126;2023-07-29T09:11:25;31.00;52.70
63047;DHT22;62025;39.238;9.126;2023-07-29T09:13:52;30.40;53.90
63047;DHT22;62025;39.238;9.126;2023-07-29T09:16:19;30.40;53.50
63047;DHT22;62025;39.238;9.126;2023-07-29T09:18:48;30.50;53.30
63047;DHT22;62025;39.238;9.126;2023-07-29T09:21:18;30.10;56.50
63047;DHT22;62025;39.238;9.126;2023-07-29T09:23:50;30.60;55.90
63047;DHT22;62025;39.238;9.126;2023-07-29T09:26:22;31.00;55.80
63047;DHT22;62025;39.238;9.126;2023-07-29T09:28:55;30.90;56.20
63047;DHT22;62025;39.238;9.126;2023-07-29T09:31:24;31.30;55.50
63047;DHT22;62025;39.238;9.126;2023-07-29T09:34:01;31.40;55.00
63047;DHT22;62025;39.238;9.126;2023-07-29T09:36:30;31.60;55.10
63047;DHT22;62025;39.238;9.126;2023-07-29T09:38:57;31.40;56.80
63047;DHT22;62025;39.238;9.126;2023-07-29T09:41:25;31.50;56.20
63047;DHT22;62025;39.238;9.126;2023-07-29T09:43:59;31.60;55.80
63047;DHT22;62025;39.238;9.126;2023-07-29T09:46:36;31.60;55.20
63047;DHT22;62025;39.238;9.126;2023-07-29T09:49:04;31.90;53.60
63047;DHT22;62025;39.238;9.126;2023-07-29T09:51:31;31.70;52.80
63047;DHT22;62025;39.238;9.126;2023-07-29T09:53:57;31.60;53.00
63047;DHT22;62025;39.238;9.126;2023-07-29T09:56:29;31.50;52.80
63047;DHT22;62025;39.238;9.126;2023-07-29T09:58:57;31.50;51.60
63047;DHT22;62025;39.238;9.126;2023-07-29T10:01:24;31.40;50.90
63047;DHT22;62025;39.238;9.126;2023-07-29T10:03:51;31.20;51.90
63047;DHT22;62025;39.238;9.126;2023-07-29T10:06:17;31.10;53.00
63047;DHT22;62025;39.238;9.126;2023-07-29T10:08:44;31.40;52.40
63047;DHT22;62025;39.238;9.126;2023-07-29T10:11:11;31.50;51.20
63047;DHT22;62025;39.238;9.126;2023-07-29T10:13:38;31.30;52.10
63047;DHT22;62025;39.238;9.126;2023-07-29T10:16:04;31.70;50.40
63047;DHT22;62025;39.238;9.126;2023-07-29T10:18:31;31.80;50.20
63047;DHT22;62025;39.238;9.126;2023-07-29T10:21:00;31.50;51.60
63047;DHT22;62025;39.238;9.126;2023-07-29T10:23:28;31.70;51.40
63047;DHT22;62025;39.238;9.126;2023-07-29T10:26:03;31.70;52.10
63047;DHT22;62025;39.238;9.126;2023-07-29T10:28:36;31.60;52.70
63047;DHT22;62025;39.238;9.126;2023-07-29T10:31:05;31.10;53.70
63047;DHT22;62025;39.238;9.126;2023-07-29T10:33:34;31.10;55.60
63047;DHT22;62025;39.238;9.126;2023-07-29T10:36:01;31.50;54.00
63047;DHT22;62025;39.238;9.126;2023-07-29T10:38:28;30.90;56.70
63047;DHT22;62025;39.238;9.126;2023-07-29T10:40:57;31.10;57.00
63047;DHT22;62025;39.238;9.126;2023-07-29T10:43:26;31.20;58.40
63047;DHT22;62025;39.238;9.126;2023-07-29T10:45:55;31.00;59.20
63047;DHT22;62025;39.238;9.126;2023-07-29T10:54:11;30.30;60.60
63047;DHT22;62025;39.238;9.126;2023-07-29T10:56:51;30.50;59.30
63047;DHT22;62025;39.238;9.126;2023-07-29T11:01:52;30.50;59.00
63047;DHT22;62025;39.238;9.126;2023-07-29T11:09:39;30.40;59.30
63047;DHT22;62025;39.238;9.126;2023-07-29T11:20:06;30.70;59.90
63047;DHT22;62025;39.238;9.126;2023-07-29T11:22:33;30.90;60.10
63047;DHT22;62025;39.238;9.126;2023-07-29T11:24:59;30.60;59.80
63047;DHT22;62025;39.238;9.126;2023-07-29T11:27:25;30.70;59.90
63047;DHT22;62025;39.238;9.126;2023-07-29T11:30:03;30.90;59.40
63047;DHT22;62025;39.238;9.126;2023-07-29T11:32:32;30.70;59.60
63047;DHT22;62025;39.238;9.126;2023-07-29T11:35:16;30.70;59.50
63047;DHT22;62025;39.238;9.126;2023-07-29T11:37:50;30.80;59.60
63047;DHT22;62025;39.238;9.126;2023-07-29T11:40:19;30.80;59.20
63047;DHT22;62025;39.238;9.126;2023-07-29T11:42:47;30.70;59.40
63047;DHT22;62025;39.238;9.126;2023-07-29T11:45:16;30.60;60.40
63047;DHT22;62025;39.238;9.126;2023-07-29T11:47:42;30.50;60.50
63047;DHT22;62025;39.238;9.126;2023-07-29T11:50:10;30.50;61.10
63047;DHT22;62025;39.238;9.126;2023-07-29T11:52:40;30.60;60.10
63047;DHT22;62025;39.238;9.126;2023-07-29T11:55:07;30.40;61.00
63047;DHT22;62025;39.238;9.126;2023-07-29T11:57:36;30.30;60.10
63047;DHT22;62025;39.238;9.126;2023-07-29T12:00:03;30.30;60.50
63047;DHT22;62025;39.238;9.126;2023-07-29T12:02:37;30.20;61.20
63047;DHT22;62025;39.238;9.126;2023-07-29T12:05:04;30.20;61.20
63047;DHT22;62025;39.238;9.126;2023-07-29T12:07:31;30.20;61.90
63047;DHT22;62025;39.238;9.126;2023-07-29T12:09:58;30.20;61.50
63047;DHT22;62025;39.238;9.126;2023-07-29T12:12:25;30.00;61.40
63047;DHT22;62025;39.238;9.126;2023-07-29T12:14:51;30.00;62.50
63047;DHT22;62025;39.238;9.126;2023-07-29T12:17:18;29.90;62.70
63047;DHT22;62025;39.238;9.126;2023-07-29T12:19:44;30.10;62.70
63047;DHT22;62025;39.238;9.126;2023-07-29T12:22:10;30.00;63.20
63047;DHT22;62025;39.238;9.126;2023-07-29T12:24:38;30.00;62.70
63047;DHT22;62025;39.238;9.126;2023-07-29T12:27:11;29.90;64.20
63047;DHT22;62025;39.238;9.126;2023-07-29T12:29:44;30.10;64.00
63047;DHT22;62025;39.238;9.126;2023-07-29T12:32:12;29.90;64.20
63047;DHT22;62025;39.238;9.126;2023-07-29T12:34:39;29.90;64.60
63047;DHT22;62025;39.238;9.126;2023-07-29T12:37:06;29.90;63.20
63047;DHT22;62025;39.238;9.126;2023-07-29T12:39:34;29.90;63.90
63047;DHT22;62025;39.238;9.126;2023-07-29T12:42:02;30.00;63.60
63047;DHT22;62025;39.238;9.126;2023-07-29T12:44:34;29.80;63.40
63047;DHT22;62025;39.238;9.126;2023-07-29T12:47:02;29.90;63.90
63047;DHT22;62025;39.238;9.126;2023-07-29T12:49:30;29.70;64.00
63047;DHT22;62025;39.238;9.126;2023-07-29T12:51:57;29.90;63.80
63047;DHT22;62025;39.238;9.126;2023-07-29T12:54:23;29.90;64.00
63047;DHT22;62025;39.238;9.126;2023-07-29T12:56:49;29.90;64.00
63047;DHT22;62025;39.238;9.126;2023-07-29T12:59:16;29.90;63.80
63047;DHT22;62025;39.238;9.126;2023-07-29T13:01:42;29.80;64.30
63047;DHT22;62025;39.238;9.126;2023-07-29T13:04:09;29.90;64.20
63047;DHT22;62025;39.238;9.126;2023-07-29T13:06:36;29.80;64.20
63047;DHT22;62025;39.238;9.126;2023-07-29T13:09:02;29.90;64.50
63047;DHT22;62025;39.238;9.126;2023-07-29T13:11:28;29.90;65.00
63047;DHT22;62025;39.238;9.126;2023-07-29T13:13:55;29.90;65.20
63047;DHT22;62025;39.238;9.126;2023-07-29T13:16:20;29.80;65.50
63047;DHT22;62025;39.238;9.126;2023-07-29T13:18:46;29.80;65.00
63047;DHT22;62025;39.238;9.126;2023-07-29T13:21:12;30.10;64.80
63047;DHT22;62025;39.238;9.126;2023-07-29T13:23:38;29.70;66.20
63047;DHT22;62025;39.238;9.126;2023-07-29T13:26:04;29.70;66.20
63047;DHT22;62025;39.238;9.126;2023-07-29T13:28:30;29.90;65.80
63047;DHT22;62025;39.238;9.126;2023-07-29T13:30:56;30.10;65.40
63047;DHT22;62025;39.238;9.126;2023-07-29T13:33:22;29.90;66.50
63047;DHT22;62025;39.238;9.126;2023-07-29T13:35:48;29.80;67.00
63047;DHT22;62025;39.238;9.126;2023-07-29T13:38:14;29.50;67.40
63047;DHT22;62025;39.238;9.126;2023-07-29T13:40:40;29.50;66.70
63047;DHT22;62025;39.238;9.126;2023-07-29T13:43:06;29.40;67.40
63047;DHT22;62025;39.238;9.126;2023-07-29T13:45:33;29.40;67.70
63047;DHT22;62025;39.238;9.126;2023-07-29T13:47:59;29.50;68.30
63047;DHT22;62025;39.238;9.126;2023-07-29T13:50:25;29.60;66.90
63047;DHT22;62025;39.238;9.126;2023-07-29T13:52:51;29.40;67.70
63047;DHT22;62025;39.238;9.126;2023-07-29T13:55:17;29.40;69.00
63047;DHT22;62025;39.238;9.126;2023-07-29T13:57:43;29.50;68.60
63047;DHT22;62025;39.238;9.126;2023-07-29T14:00:09;29.40;67.50
63047;DHT22;62025;39.238;9.126;2023-07-29T14:02:38;29.40;68.70
63047;DHT22;62025;39.238;9.126;2023-07-29T14:05:04;29.50;68.10
63047;DHT22;62025;39.238;9.126;2023-07-29T14:07:32;29.50;69.10
63047;DHT22;62025;39.238;9.126;2023-07-29T14:09:58;29.40;67.60
63047;DHT22;62025;39.238;9.126;2023-07-29T14:12:24;29.50;67.40
63047;DHT22;62025;39.238;9.126;2023-07-29T14:14:50;29.50;68.20
63047;DHT22;62025;39.238;9.126;2023-07-29T14:17:16;29.50;69.30
63047;DHT22;62025;39.238;9.126;2023-07-29T14:19:42;29.60;68.20
63047;DHT22;62025;39.238;9.126;2023-07-29T14:22:09;29.70;68.80
63047;DHT22;62025;39.238;9.126;2023-07-29T14:24:34;29.60;69.00
63047;DHT22;62025;39.238;9.126;2023-07-29T14:27:00;29.80;68.40
63047;DHT22;62025;39.238;9.126;2023-07-29T14:29:26;29.60;68.50
63047;DHT22;62025;39.238;9.126;2023-07-29T14:31:52;29.50;68.80
63047;DHT22;62025;39.238;9.126;2023-07-29T14:34:18;29.70;68.80
63047;DHT22;62025;39.238;9.126;2023-07-29T14:36:44;29.70;68.40
63047;DHT22;62025;39.238;9.126;2023-07-29T14:39:10;29.40;69.60
63047;DHT22;62025;39.238;9.126;2023-07-29T14:41:37;29.50;69.20
63047;DHT22;62025;39.238;9.126;2023-07-29T14:44:03;29.50;69.60
63047;DHT22;62025;39.238;9.126;2023-07-29T14:46:29;29.70;69.00
63047;DHT22;62025;39.238;9.126;2023-07-29T14:48:54;29.80;68.30
63047;DHT22;62025;39.238;9.126;2023-07-29T14:51:20;29.80;69.10
63047;DHT22;62025;39.238;9.126;2023-07-29T14:53:48;29.40;70.90
63047;DHT22;62025;39.238;9.126;2023-07-29T14:56:14;29.40;70.70
63047;DHT22;62025;39.238;9.126;2023-07-29T14:58:43;29.30;70.90
63047;DHT22;62025;39.238;9.126;2023-07-29T15:01:10;29.20;70.00
63047;DHT22;62025;39.238;9.126;2023-07-29T15:03:36;29.00;71.40
63047;DHT22;62025;39.238;9.126;2023-07-29T15:06:02;29.20;71.30
63047;DHT22;62025;39.238;9.126;2023-07-29T15:08:28;29.20;71.00
63047;DHT22;62025;39.238;9.126;2023-07-29T15:10:54;29.20;71.20
63047;DHT22;62025;39.238;9.126;2023-07-29T15:13:20;29.20;70.90
63047;DHT22;62025;39.238;9.126;2023-07-29T15:15:46;29.10;70.80
63047;DHT22;62025;39.238;9.126;2023-07-29T15:18:13;29.00;71.20
63047;DHT22;62025;39.238;9.126;2023-07-29T15:20:39;29.10;70.30
63047;DHT22;62025;39.238;9.126;2023-07-29T15:23:05;29.10;70.40
63047;DHT22;62025;39.238;9.126;2023-07-29T15:25:31;29.30;69.90
63047;DHT22;62025;39.238;9.126;2023-07-29T15:27:57;29.40;69.70
63047;DHT22;62025;39.238;9.126;2023-07-29T15:30:23;29.10;70.50
63047;DHT22;62025;39.238;9.126;2023-07-29T15:32:49;29.20;70.80
63047;DHT22;62025;39.238;9.126;2023-07-29T15:35:15;29.20;70.80
63047;DHT22;62025;39.238;9.126;2023-07-29T15:37:41;29.20;70.90
63047;DHT22;62025;39.238;9.126;2023-07-29T15:40:08;29.00;70.80
63047;DHT22;62025;39.238;9.126;2023-07-29T15:42:34;29.00;71.40
63047;DHT22;62025;39.238;9.126;2023-07-29T15:45:00;28.90;71.50
63047;DHT22;62025;39.238;9.126;2023-07-29T15:47:26;29.00;70.90
63047;DHT22;62025;39.238;9.126;2023-07-29T15:49:52;29.10;71.00
63047;DHT22;62025;39.238;9.126;2023-07-29T15:52:18;29.10;71.40
63047;DHT22;62025;39.238;9.126;2023-07-29T15:54:44;28.90;72.00
63047;DHT22;62025;39.238;9.126;2023-07-29T15:57:10;28.90;72.20
63047;DHT22;62025;39.238;9.126;2023-07-29T15:59:36;28.90;72.20